Time;durP1;ratioP1;P1;durP2;ratioP2;P2;SDS_P1;SDS_P2;PMS_P1;PMS_P2;Temp;Humidity;BMP_temperature;BMP_pressure;BME280_temperature;BME280_humidity;BME280_pressure;Samples;Min_cycle;Max_cycle;Signal;HPM_P1;HPM_P2
2023/04/05 00:00:41;;;;;;;12.18;8.15;;;;;;;-0.31;70.20;94155.72;5087604;28;20043;-77
2023/04/05 00:03:08;;;;;;;10.98;8.05;;;;;;;-0.40;70.35;94173.25;5087313;28;20024;-79
2023/04/05 00:05:35;;;;;;;12.07;8.23;;;;;;;-0.02;71.05;94235.16;5086474;28;20052;-77
2023/04/05 00:08:02;;;;;;;9.98;7.07;;;;;;;0.38;71.21;94307.19;5083128;28;20024;-77
2023/04/05 00:10:31;;;;;;;10.50;7.50;;;;;;;0.41;70.58;94297.63;5086692;28;20486;-77
2023/04/05 00:12:57;;;;;;;11.45;8.20;;;;;;;-0.50;71.64;94148.22;5079963;28;20142;-77
2023/04/05 00:15:23;;;;;;;10.38;8.00;;;;;;;-0.73;71.19;94105.16;5087784;28;20115;-77
2023/04/05 00:17:49;;;;;;;10.30;7.53;;;;;;;-0.41;71.28;94184.38;5083196;28;20114;-77
2023/04/05 00:20:15;;;;;;;9.52;7.68;;;;;;;-0.26;70.99;94204.00;5085628;28;20111;-77
2023/04/05 00:22:42;;;;;;;11.45;8.43;;;;;;;0.29;71.06;94267.63;5085905;28;20468;-78
2023/04/05 00:25:08;;;;;;;10.43;7.65;;;;;;;0.47;71.48;94291.38;5086567;28;20028;-77
2023/04/05 00:27:33;;;;;;;10.00;7.50;;;;;;;-0.34;70.80;94162.72;5082993;28;20028;-77
2023/04/05 00:29:59;;;;;;;9.63;7.60;;;;;;;0.54;70.30;94297.84;5085892;28;20314;-79
2023/04/05 00:32:25;;;;;;;10.45;7.57;;;;;;;0.31;71.14;94283.69;5087044;28;20103;-77
2023/04/05 00:34:50;;;;;;;12.63;9.48;;;;;;;-0.08;70.53;94205.66;5085920;28;20035;-77
2023/04/05 00:37:17;;;;;;;13.15;9.70;;;;;;;0.15;70.74;94244.50;5082153;28;20028;-77
2023/04/05 00:39:42;;;;;;;11.45;8.48;;;;;;;0.50;70.95;94300.63;5089019;28;20032;-77
2023/04/05 00:42:08;;;;;;;13.23;9.15;;;;;;;-0.17;70.92;94187.41;5091101;28;20036;-75
2023/04/05 00:44:34;;;;;;;11.40;7.90;;;;;;;-0.12;70.46;94205.88;5090479;28;20402;-75
2023/04/05 00:47:03;;;;;;;11.55;8.13;;;;;;;0.42;70.92;94278.88;5069793;28;20416;-76
2023/04/05 00:49:29;;;;;;;11.63;7.60;;;;;;;0.59;70.20;94305.28;5090434;28;20513;-75
2023/04/05 00:51:56;;;;;;;8.38;6.72;;;;;;;-0.09;70.73;94210.81;5072389;28;20121;-75
2023/04/05 00:54:22;;;;;;;8.43;6.55;;;;;;;0.52;70.48;94293.72;5090154;28;20024;-75
2023/04/05 00:56:47;;;;;;;10.55;6.78;;;;;;;0.02;70.15;94223.88;5069062;28;21318;-76
2023/04/05 00:59:13;;;;;;;10.20;6.93;;;;;;;-0.13;69.55;94202.50;5090071;28;20023;-75
2023/04/05 01:01:39;;;;;;;7.28;5.55;;;;;;;-0.35;70.04;94179.78;5084194;28;20935;-75
2023/04/05 01:04:06;;;;;;;8.60;6.22;;;;;;;0.47;70.26;94305.91;5088440;28;20031;-75
2023/04/05 01:06:50;;;;;;;8.52;6.40;;;;;;;-0.42;70.25;94187.81;5069407;28;20039;-75
2023/04/05 01:09:44;;;;;;;9.32;6.70;;;;;;;0.57;69.61;94319.88;5087990;28;20060;-75
2023/04/05 01:12:11;;;;;;;6.28;5.05;;;;;;;0.52;69.38;94306.50;5088911;28;20124;-75
2023/04/05 01:14:50;;;;;;;7.40;5.05;;;;;;;-0.10;70.01;94212.56;5088819;28;20408;-75
2023/04/05 01:17:20;;;;;;;6.47;5.00;;;;;;;0.51;69.52;94307.41;5085759;28;20034;-75
2023/04/05 01:19:47;;;;;;;7.47;5.43;;;;;;;-0.09;69.32;94216.75;5090020;28;20044;-75
2023/04/05 01:22:15;;;;;;;6.85;4.95;;;;;;;0.52;69.68;94309.03;5089524;28;20035;-76
2023/04/05 01:25:09;;;;;;;6.63;5.13;;;;;;;-0.05;69.80;94231.03;5090134;28;20036;-75
2023/04/05 01:28:05;;;;;;;6.47;4.88;;;;;;;0.41;70.18;94312.16;5082584;28;20017;-76
2023/04/05 01:30:33;;;;;;;7.93;5.70;;;;;;;-0.66;70.14;94144.78;5085796;28;20109;-75
2023/04/05 01:33:03;;;;;;;7.13;5.43;;;;;;;0.47;70.10;94306.72;5071753;28;20065;-76
2023/04/05 01:35:33;;;;;;;7.95;5.95;;;;;;;-0.08;70.18;94220.97;5082801;28;20269;-75
2023/04/05 01:38:01;;;;;;;7.70;5.60;;;;;;;-0.36;70.07;94174.75;5086889;28;20073;-75
2023/04/05 01:40:27;;;;;;;7.47;5.25;;;;;;;0.07;69.25;94213.41;5087974;28;20298;-75
2023/04/05 01:42:52;;;;;;;7.20;5.40;;;;;;;0.05;69.61;94220.31;5071732;28;20042;-75
2023/04/05 01:45:18;;;;;;;7.68;5.50;;;;;;;0.55;69.74;94308.88;5089783;28;20074;-75
2023/04/05 01:47:43;;;;;;;6.60;4.95;;;;;;;0.30;69.20;94282.03;5085585;28;20028;-76
2023/04/05 01:50:09;;;;;;;6.15;4.50;;;;;;;0.53;70.02;94310.69;5089661;28;20040;-75
2023/04/05 01:52:34;;;;;;;6.75;4.68;;;;;;;-0.28;69.31;94188.78;5089046;28;20028;-77
2023/04/05 01:55:00;;;;;;;6.22;4.80;;;;;;;-0.16;68.33;94202.66;5089497;28;20094;-76
2023/04/05 01:57:25;;;;;;;6.13;4.32;;;;;;;0.58;69.33;94319.78;5084911;28;20024;-75
2023/04/05 01:59:51;;;;;;;8.30;4.55;;;;;;;0.46;68.71;94324.69;5088814;28;20044;-75
2023/04/05 02:02:16;;;;;;;5.78;4.28;;;;;;;-0.29;67.90;94199.06;5089009;28;20024;-76
2023/04/05 02:04:42;;;;;;;5.70;4.15;;;;;;;-0.20;68.49;94210.53;5089324;28;20089;-75
2023/04/05 02:07:07;;;;;;;6.15;4.18;;;;;;;0.39;69.13;94311.41;5084714;28;20052;-75
2023/04/05 02:09:33;;;;;;;6.38;4.00;;;;;;;-0.37;68.99;94189.22;5088108;28;20028;-75
2023/04/05 02:12:00;;;;;;;5.53;4.22;;;;;;;-0.30;68.21;94187.22;5088492;28;20397;-75
2023/04/05 02:14:25;;;;;;;5.95;4.32;;;;;;;-0.43;68.56;94170.84;5088563;28;20026;-75
2023/04/05 02:16:55;;;;;;;5.57;3.92;;;;;;;0.55;68.57;94314.00;5090118;28;20339;-75
2023/04/05 02:19:21;;;;;;;5.47;3.90;;;;;;;0.50;69.36;94315.97;5088704;28;20565;-76
2023/04/05 02:21:49;;;;;;;5.80;4.13;;;;;;;-0.12;68.08;94196.47;5088414;28;20032;-76
2023/04/05 02:24:15;;;;;;;6.20;4.25;;;;;;;0.44;69.03;94312.81;5088920;28;20024;-75
2023/04/05 02:26:40;;;;;;;5.55;4.30;;;;;;;-0.43;69.04;94184.44;5084406;28;20044;-76
2023/04/05 02:29:06;;;;;;;5.70;4.38;;;;;;;-0.16;69.12;94210.31;5088678;28;20036;-76
2023/04/05 02:31:31;;;;;;;5.90;4.53;;;;;;;-0.10;68.45;94199.78;5088883;28;20439;-75
2023/04/05 02:33:59;;;;;;;5.57;4.20;;;;;;;-0.05;68.43;94190.16;5088386;28;20042;-75
2023/04/05 02:36:27;;;;;;;5.75;4.07;;;;;;;0.44;68.95;94284.69;5087874;28;20028;-75
2023/04/05 02:38:53;;;;;;;6.70;5.30;;;;;;;-0.13;68.39;94189.72;5086382;28;20070;-76
2023/04/05 02:41:19;;;;;;;6.25;5.10;;;;;;;-0.06;67.84;94196.16;5088526;28;20016;-75
2023/04/05 02:43:45;;;;;;;7.03;5.35;;;;;;;0.69;68.58;94339.66;5086727;28;20107;-76
2023/04/05 02:46:10;;;;;;;6.20;4.82;;;;;;;0.01;68.09;94183.91;5088558;28;20141;-75
2023/04/05 02:48:36;;;;;;;5.90;4.05;;;;;;;0.74;67.51;94309.56;5084965;28;20513;-75
2023/04/05 02:51:02;;;;;;;5.63;4.25;;;;;;;-0.09;68.52;94201.44;5087292;28;20460;-75
2023/04/05 02:53:27;;;;;;;5.88;4.20;;;;;;;-0.07;68.86;94189.41;5088727;28;20035;-79
2023/04/05 02:55:56;;;;;;;6.13;4.63;;;;;;;0.66;68.18;94288.69;5087020;28;20032;-75
2023/04/05 02:58:22;;;;;;;5.65;4.07;;;;;;;0.77;68.11;94309.41;5084696;28;20631;-76
2023/04/05 03:00:49;;;;;;;8.00;4.70;;;;;;;0.68;67.79;94312.47;5088266;28;20035;-75
2023/04/05 03:03:17;;;;;;;6.45;4.32;;;;;;;0.12;68.25;94208.91;5087505;28;20024;-76
2023/04/05 03:05:42;;;;;;;7.20;4.95;;;;;;;0.30;68.00;94225.81;5087134;28;20066;-75
2023/04/05 03:08:08;;;;;;;7.13;4.70;;;;;;;0.68;68.15;94311.63;5085234;28;20020;-77
2023/04/05 03:10:35;;;;;;;5.85;4.30;;;;;;;0.71;68.73;94301.25;5087052;28;20044;-74
2023/04/05 03:13:01;;;;;;;6.03;4.35;;;;;;;-0.12;68.24;94170.94;5085380;28;20043;-75
2023/04/05 03:15:27;;;;;;;8.77;6.80;;;;;;;0.77;68.33;94308.59;5088355;28;20036;-75
2023/04/05 03:17:52;;;;;;;7.00;4.90;;;;;;;-0.07;67.82;94174.09;5084200;28;20023;-78
2023/04/05 03:20:18;;;;;;;7.70;5.93;;;;;;;0.66;67.54;94307.41;5087115;28;20477;-75
2023/04/05 03:22:43;;;;;;;9.02;7.47;;;;;;;-0.16;68.37;94174.56;5088217;28;20096;-74
2023/04/05 03:25:10;;;;;;;8.73;6.15;;;;;;;-0.09;68.41;94177.63;5088314;28;20031;-74
2023/04/05 03:27:37;;;;;;;8.48;6.95;;;;;;;0.08;68.08;94199.72;5084133;28;20073;-75
2023/04/05 03:30:03;;;;;;;10.50;7.38;;;;;;;-0.19;68.50;94177.28;5087666;28;20513;-75
2023/04/05 03:32:29;;;;;;;9.18;5.78;;;;;;;-0.25;68.29;94178.41;5088015;28;20024;-76
2023/04/05 03:34:55;;;;;;;8.15;5.90;;;;;;;-0.09;68.58;94195.50;5088352;28;20414;-75
2023/04/05 03:37:21;;;;;;;7.80;4.90;;;;;;;0.02;68.46;94203.44;5083178;28;20032;-76
2023/04/05 03:39:47;;;;;;;6.50;5.00;;;;;;;0.18;68.06;94221.34;5086022;28;20030;-75
2023/04/05 03:42:14;;;;;;;6.45;5.03;;;;;;;-0.04;69.63;94230.09;5085079;28;20035;-76
2023/04/05 03:44:40;;;;;;;9.38;6.63;;;;;;;-0.11;68.48;94198.16;5086558;28;20101;-76
2023/04/05 03:47:06;;;;;;;7.43;5.57;;;;;;;0.47;70.92;94324.59;5082063;28;20478;-77
2023/04/05 03:49:32;;;;;;;8.27;5.70;;;;;;;-0.24;69.52;94212.44;5088854;28;20123;-75
2023/04/05 03:51:57;;;;;;;7.43;5.22;;;;;;;-0.12;69.34;94222.00;5087105;28;20024;-76
2023/04/05 03:54:23;;;;;;;7.70;5.93;;;;;;;-0.26;68.69;94202.28;5086721;28;20035;-76
2023/04/05 03:56:48;;;;;;;10.05;6.57;;;;;;;0.55;69.49;94327.59;5083431;28;20039;-80
2023/04/05 03:59:14;;;;;;;8.18;5.80;;;;;;;-0.16;70.19;94199.28;5087345;28;20028;-75
2023/04/05 04:01:39;;;;;;;6.20;4.72;;;;;;;-0.03;70.28;94220.72;5070506;28;20469;-78
2023/04/05 04:04:05;;;;;;;7.15;5.30;;;;;;;-0.12;69.66;94185.44;5090459;28;20039;-75
2023/04/05 04:06:30;;;;;;;6.25;5.30;;;;;;;0.75;71.46;94328.28;5088588;28;20059;-75
2023/04/05 04:08:56;;;;;;;9.20;7.32;;;;;;;0.68;70.36;94338.03;5089884;28;20426;-74
2023/04/05 04:11:21;;;;;;;5.72;4.50;;;;;;;-0.37;70.73;94181.56;5088367;28;20036;-75
2023/04/05 04:13:47;;;;;;;9.00;7.07;;;;;;;-0.07;70.97;94219.22;5087500;28;20024;-78
2023/04/05 04:16:12;;;;;;;6.53;5.20;;;;;;;0.25;71.83;94285.72;5090052;28;20036;-75
2023/04/05 04:18:38;;;;;;;8.27;5.68;;;;;;;0.55;72.16;94342.94;5089775;28;20055;-75
2023/04/05 04:21:06;;;;;;;7.03;5.88;;;;;;;0.49;71.62;94339.88;5072730;28;20039;-76
2023/04/05 04:23:33;;;;;;;8.75;6.90;;;;;;;-0.29;72.72;94209.28;5083125;28;20032;-74
2023/04/05 04:26:00;;;;;;;7.40;5.43;;;;;;;0.54;72.12;94341.28;5078489;28;20032;-75
2023/04/05 04:28:26;;;;;;;7.95;6.03;;;;;;;-0.23;73.09;94231.94;5069943;28;20048;-76
2023/04/05 04:30:52;;;;;;;7.60;5.95;;;;;;;-0.39;72.65;94208.06;5076864;28;20457;-75
2023/04/05 04:33:18;;;;;;;7.50;5.70;;;;;;;-0.35;73.32;94260.63;5088246;28;20060;-76
2023/04/05 04:35:45;;;;;;;7.03;5.60;;;;;;;-0.30;72.79;94233.97;5086218;28;20387;-75
2023/04/05 04:38:17;;;;;;;8.52;5.88;;;;;;;-0.84;73.18;94146.50;5084790;28;20077;-76
2023/04/05 04:40:57;;;;;;;8.35;6.75;;;;;;;0.28;73.47;94352.84;5084322;28;20043;-75
2023/04/05 04:43:25;;;;;;;8.43;5.70;;;;;;;0.29;73.16;94346.00;5083929;28;20441;-77
2023/04/05 04:45:53;;;;;;;9.43;7.13;;;;;;;-0.31;71.91;94246.81;5084511;28;20036;-76
2023/04/05 04:48:22;;;;;;;8.80;5.38;;;;;;;0.15;71.76;94306.63;5086215;28;20035;-77
2023/04/05 04:50:48;;;;;;;6.80;5.53;;;;;;;-0.17;71.63;94262.25;5084153;28;20032;-76
2023/04/05 04:53:16;;;;;;;8.15;5.50;;;;;;;0.36;70.70;94358.41;5089805;28;20024;-77
2023/04/05 04:55:42;;;;;;;8.00;5.88;;;;;;;0.56;71.12;94354.00;5087732;28;20516;-77
2023/04/05 04:58:11;;;;;;;7.85;5.07;;;;;;;0.52;71.27;94361.00;5088172;28;20028;-78
2023/04/05 05:00:42;;;;;;;7.10;5.20;;;;;;;-0.12;70.45;94242.44;5086902;28;20039;-76
2023/04/05 05:03:10;;;;;;;40.53;15.93;;;;;;;-0.14;71.15;94240.84;5088153;28;20553;-76
2023/04/05 05:05:41;;;;;;;18.92;10.75;;;;;;;0.68;70.48;94358.47;5087469;28;20056;-76
2023/04/05 05:08:06;;;;;;;6.40;4.55;;;;;;;0.04;68.89;94280.81;5088777;28;20026;-77
2023/04/05 05:10:32;;;;;;;7.70;5.80;;;;;;;0.68;68.75;94357.66;5122836;28;20119;-76
2023/04/05 05:12:57;;;;;;;5.45;4.20;;;;;;;0.22;68.37;94244.13;5086213;28;20506;-76
2023/04/05 05:15:23;;;;;;;5.93;4.57;;;;;;;0.27;68.69;94274.53;5070169;28;20036;-77
2023/04/05 05:17:51;;;;;;;4.50;3.70;;;;;;;0.40;67.06;94284.94;5102330;28;20058;-76
2023/04/05 05:20:17;;;;;;;4.75;3.00;;;;;;;0.18;68.20;94254.56;5116315;27;20032;-76
2023/04/05 05:22:42;;;;;;;5.90;3.97;;;;;;;0.93;67.30;94362.34;5087009;28;20107;-79
2023/04/05 05:25:08;;;;;;;4.15;3.22;;;;;;;0.15;66.89;94239.41;5092008;28;20035;-76
2023/04/05 05:27:34;;;;;;;5.18;4.00;;;;;;;-0.04;67.43;94231.84;5092679;28;20134;-76
2023/04/05 05:30:00;;;;;;;5.15;4.00;;;;;;;0.16;67.07;94261.47;5091203;28;20530;-76
2023/04/05 05:32:25;;;;;;;7.30;4.88;;;;;;;0.75;67.49;94374.31;5086588;28;20028;-77
2023/04/05 05:34:51;;;;;;;8.63;5.82;;;;;;;0.24;68.35;94277.25;5089349;28;20043;-76
2023/04/05 05:37:16;;;;;;;7.72;5.57;;;;;;;0.10;68.23;94244.72;5092520;28;20036;-75
2023/04/05 05:39:45;;;;;;;8.00;4.85;;;;;;;0.22;68.33;94241.56;5088590;28;20107;-76
2023/04/05 05:42:10;;;;;;;4.55;3.45;;;;;;;0.35;67.80;94287.72;5091593;28;20024;-76
2023/04/05 05:44:36;;;;;;;6.22;3.95;;;;;;;0.95;67.47;94363.91;5092337;28;20153;-75
2023/04/05 05:47:02;;;;;;;6.25;4.57;;;;;;;0.24;67.23;94258.53;5092637;28;20038;-78
2023/04/05 05:49:27;;;;;;;6.70;4.53;;;;;;;1.05;67.14;94361.69;5092592;28;20020;-76
2023/04/05 05:51:53;;;;;;;10.05;7.40;;;;;;;0.48;67.05;94264.13;5093079;28;20498;-78
2023/04/05 05:54:19;;;;;;;6.05;4.45;;;;;;;0.47;66.94;94234.34;5097116;28;20102;-79
2023/04/05 05:56:44;;;;;;;8.30;4.60;;;;;;;0.54;67.16;94243.34;5101126;28;20085;-77
2023/04/05 05:59:10;;;;;;;5.82;3.78;;;;;;;1.39;66.27;94362.44;5094269;28;20463;-76
2023/04/05 06:01:37;;;;;;;5.40;3.13;;;;;;;0.79;66.00;94271.81;5091273;28;20085;-75
2023/04/05 06:04:03;;;;;;;6.78;3.60;;;;;;;1.30;64.76;94364.56;5089609;28;20113;-75
2023/04/05 06:06:29;;;;;;;4.47;3.17;;;;;;;0.71;65.94;94238.16;5074111;28;20438;-76
2023/04/05 06:08:54;;;;;;;7.30;4.40;;;;;;;0.97;63.76;94290.44;5091614;28;20055;-77
2023/04/05 06:11:24;;;;;;;5.80;4.03;;;;;;;1.64;63.78;94367.84;5091605;28;20039;-76
2023/04/05 06:13:54;;;;;;;6.65;3.80;;;;;;;1.74;64.45;94365.63;5091913;28;20453;-76
2023/04/05 06:16:22;;;;;;;5.43;3.08;;;;;;;1.79;64.79;94367.03;5091860;28;20028;-76
2023/04/05 06:18:48;;;;;;;5.93;4.35;;;;;;;0.70;63.73;94198.16;5089267;28;20036;-76
2023/04/05 06:21:14;;;;;;;6.18;4.03;;;;;;;0.99;63.95;94240.03;5090463;28;20036;-75
2023/04/05 06:23:40;;;;;;;5.60;3.40;;;;;;;1.20;62.87;94271.31;5091204;28;20028;-77
2023/04/05 06:26:06;;;;;;;4.65;3.60;;;;;;;1.11;62.60;94234.28;5091873;28;20518;-76
2023/04/05 06:28:32;;;;;;;4.57;3.65;;;;;;;1.95;63.15;94371.28;5091371;28;20275;-77
2023/04/05 06:30:58;;;;;;;4.75;3.20;;;;;;;1.97;62.19;94374.59;5091272;28;20032;-75
2023/04/05 06:33:23;;;;;;;3.30;2.72;;;;;;;1.36;62.49;94257.66;5091598;28;20031;-77
2023/04/05 06:35:49;;;;;;;3.95;3.03;;;;;;;1.31;62.02;94242.56;5090051;28;20056;-76
2023/04/05 06:38:15;;;;;;;4.28;3.10;;;;;;;1.54;62.10;94266.88;5091728;28;20020;-79
2023/04/05 06:40:40;;;;;;;9.85;6.97;;;;;;;2.14;61.86;94351.38;5092265;28;20115;-76
2023/04/05 06:43:06;;;;;;;4.78;3.53;;;;;;;2.29;61.72;94377.91;5090995;28;20032;-78
2023/04/05 06:45:32;;;;;;;4.40;3.08;;;;;;;2.44;61.10;94384.69;5092011;28;20044;-76
2023/04/05 06:47:57;;;;;;;4.97;3.67;;;;;;;1.78;60.77;94287.69;5090886;28;20026;-76
2023/04/05 06:50:23;;;;;;;3.80;3.17;;;;;;;1.70;61.29;94257.41;5091946;28;20468;-76
2023/04/05 06:52:48;;;;;;;4.38;3.30;;;;;;;2.36;60.13;94361.22;5091603;28;20031;-76
2023/04/05 06:55:14;;;;;;;3.40;2.70;;;;;;;2.07;59.70;94298.03;5091960;28;20040;-75
2023/04/05 06:57:39;;;;;;;4.25;3.25;;;;;;;2.05;59.98;94289.59;5090915;28;20070;-77
2023/04/05 07:00:12;;;;;;;4.57;2.70;;;;;;;2.26;58.37;94318.28;5092028;28;20039;-76
2023/04/05 07:02:37;;;;;;;8.05;5.70;;;;;;;2.99;57.39;94411.41;5095024;28;20024;-75
2023/04/05 07:05:04;;;;;;;4.95;2.80;;;;;;;3.01;57.98;94409.59;5091495;28;20074;-76
2023/04/05 07:07:33;;;;;;;3.80;2.42;;;;;;;2.90;58.31;94394.84;5091557;28;20406;-75
2023/04/05 07:09:59;;;;;;;2.63;1.95;;;;;;;2.56;57.38;94351.56;5074018;28;20111;-77
2023/04/05 07:12:24;;;;;;;6.38;4.47;;;;;;;3.11;57.71;94417.56;5090325;28;20105;-78
2023/04/05 07:14:50;;;;;;;5.75;3.45;;;;;;;2.79;57.70;94398.94;5091750;28;20031;-76
2023/04/05 07:17:15;;;;;;;10.38;5.28;;;;;;;2.35;57.41;94312.63;5090422;28;20023;-75
2023/04/05 07:19:41;;;;;;;5.07;3.10;;;;;;;2.34;57.08;94326.34;5073569;28;20028;-75
2023/04/05 07:22:07;;;;;;;5.15;3.70;;;;;;;2.96;57.31;94423.63;5095764;28;20134;-76
2023/04/05 07:24:32;;;;;;;2.97;2.10;;;;;;;2.96;55.65;94396.22;5111849;28;20035;-75
2023/04/05 07:26:58;;;;;;;6.47;4.03;;;;;;;3.02;57.05;94412.97;5111797;28;20409;-75
2023/04/05 07:29:23;;;;;;;10.73;7.88;;;;;;;2.91;57.15;94386.19;5110616;28;20076;-75
2023/04/05 07:31:49;;;;;;;7.95;4.53;;;;;;;3.07;56.01;94434.88;5093514;28;20028;-75
2023/04/05 07:34:14;;;;;;;8.75;4.32;;;;;;;3.11;56.13;94426.06;5111619;28;20092;-75
2023/04/05 07:36:40;;;;;;;12.15;5.88;;;;;;;2.38;56.09;94333.78;5112311;28;20044;-75
2023/04/05 07:39:06;;;;;;;12.05;5.72;;;;;;;2.32;55.87;94336.69;5110289;28;20034;-75
2023/04/05 07:41:34;;;;;;;9.20;5.75;;;;;;;2.42;58.24;94340.38;5093483;28;20115;-75
2023/04/05 07:44:00;;;;;;;5.38;3.40;;;;;;;2.55;55.36;94349.91;5098689;28;20445;-75
2023/04/05 07:46:26;;;;;;;4.88;3.35;;;;;;;2.96;56.45;94434.69;5091528;28;20036;-75
2023/04/05 07:48:52;;;;;;;5.80;4.53;;;;;;;2.26;56.33;94329.38;5100489;28;20041;-76
2023/04/05 07:51:17;;;;;;;5.60;3.42;;;;;;;2.70;56.85;94408.00;5111413;28;20061;-76
2023/04/05 07:53:43;;;;;;;3.10;2.60;;;;;;;2.40;56.19;94355.03;5111602;28;20103;-76
2023/04/05 07:56:09;;;;;;;3.42;2.08;;;;;;;2.86;55.40;94448.97;5111491;28;20036;-75
2023/04/05 07:58:35;;;;;;;6.03;2.95;;;;;;;2.41;56.60;94361.78;5111243;28;20541;-76
2023/04/05 08:01:01;;;;;;;4.30;2.85;;;;;;;2.13;56.84;94328.44;5110216;28;20063;-76
2023/04/05 08:03:27;;;;;;;3.55;2.25;;;;;;;3.01;57.41;94448.09;5111103;28;20027;-75
2023/04/05 08:05:53;;;;;;;8.40;3.70;;;;;;;2.59;55.90;94397.53;5110824;28;20059;-75
2023/04/05 08:08:19;;;;;;;4.53;2.65;;;;;;;2.26;56.20;94364.41;5111431;28;20569;-75
2023/04/05 08:10:44;;;;;;;3.47;2.22;;;;;;;2.34;56.82;94362.22;5111219;28;20038;-75
2023/04/05 08:13:10;;;;;;;3.22;2.33;;;;;;;2.52;55.63;94403.94;5111248;28;20481;-78
2023/04/05 08:15:35;;;;;;;4.00;1.88;;;;;;;2.25;55.50;94340.53;5111154;28;20043;-76
2023/04/05 08:18:01;;;;;;;3.42;2.45;;;;;;;3.06;55.45;94468.31;5111053;28;20024;-75
2023/04/05 08:20:26;;;;;;;3.88;3.22;;;;;;;2.41;56.22;94376.34;5111212;28;20043;-75
2023/04/05 08:22:52;;;;;;;5.68;1.98;;;;;;;2.45;55.84;94365.00;5111357;28;20161;-77
2023/04/05 08:25:17;;;;;;;3.80;2.65;;;;;;;3.12;56.14;94471.38;5111145;28;20470;-77
2023/04/05 08:27:43;;;;;;;4.40;3.00;;;;;;;2.56;55.91;94351.56;5111379;28;20080;-77
2023/04/05 08:30:09;;;;;;;3.05;2.03;;;;;;;2.27;55.06;94340.44;5111238;28;20032;-78
2023/04/05 08:32:35;;;;;;;3.20;2.17;;;;;;;2.66;56.50;94381.69;5111175;28;20055;-78
2023/04/05 08:35:00;;;;;;;2.65;2.00;;;;;;;2.23;56.10;94325.25;5109678;28;20107;-78
2023/04/05 08:37:26;;;;;;;4.60;3.33;;;;;;;3.19;56.75;94455.59;5111402;28;20065;-77
2023/04/05 08:39:52;;;;;;;4.85;3.05;;;;;;;2.50;56.64;94352.72;5109541;28;20448;-77
2023/04/05 08:42:18;;;;;;;5.50;2.88;;;;;;;3.38;56.69;94469.00;5090907;28;20048;-77
2023/04/05 08:44:45;;;;;;;5.97;3.45;;;;;;;3.44;56.79;94476.31;5089489;28;20082;-77
2023/04/05 08:47:14;;;;;;;5.85;3.30;;;;;;;2.86;55.68;94379.69;5089433;28;20055;-77
2023/04/05 08:49:43;;;;;;;5.72;3.28;;;;;;;2.91;55.88;94440.09;5090708;28;20123;-78
2023/04/05 08:52:08;;;;;;;5.43;3.17;;;;;;;2.50;55.64;94387.81;5107983;28;20031;-77
2023/04/05 08:54:34;;;;;;;4.47;2.85;;;;;;;3.20;56.18;94488.03;5110569;28;20034;-78
2023/04/05 08:57:00;;;;;;;5.40;3.30;;;;;;;2.49;54.85;94387.00;5110879;28;20525;-77
2023/04/05 08:59:25;;;;;;;4.07;2.72;;;;;;;2.48;55.04;94393.06;5111033;28;20027;-77
2023/04/05 09:01:51;;;;;;;2.97;2.30;;;;;;;3.18;56.12;94497.59;5113690;28;20020;-79
2023/04/05 09:04:22;;;;;;;3.63;2.13;;;;;;;2.41;56.48;94390.00;5114919;28;20020;-77
2023/04/05 09:06:49;;;;;;;2.90;2.10;;;;;;;2.62;55.38;94375.13;5114239;28;20058;-77
2023/04/05 09:09:14;;;;;;;3.42;2.20;;;;;;;3.08;55.74;94492.16;5114713;27;20278;-77
2023/04/05 09:11:40;;;;;;;3.42;2.53;;;;;;;2.40;56.15;94379.84;5113144;28;20039;-77
2023/04/05 09:14:05;;;;;;;4.93;3.25;;;;;;;2.55;57.03;94385.81;5113128;28;20027;-77
2023/04/05 09:16:32;;;;;;;2.78;2.20;;;;;;;2.56;57.13;94397.72;5114107;28;20184;-76
2023/04/05 09:18:58;;;;;;;5.25;3.00;;;;;;;3.44;56.66;94496.03;5114004;28;20455;-77
2023/04/05 09:21:23;;;;;;;3.38;2.40;;;;;;;2.88;56.13;94398.41;5114360;28;20030;-77
2023/04/05 09:23:55;;;;;;;3.30;2.10;;;;;;;2.79;55.69;94379.25;5114281;28;20028;-77
2023/04/05 09:26:24;;;;;;;5.32;3.05;;;;;;;2.97;55.85;94410.69;5114388;28;20032;-77
2023/04/05 09:28:49;;;;;;;4.03;3.08;;;;;;;2.93;56.56;94398.13;5113761;28;20031;-78
2023/04/05 09:31:34;;;;;;;6.18;4.07;;;;;;;2.96;57.99;94400.53;5113917;28;20035;-77
2023/04/05 09:34:03;;;;;;;4.25;3.10;;;;;;;2.94;55.80;94395.47;5113818;28;20032;-77
2023/04/05 09:36:29;;;;;;;4.07;3.20;;;;;;;2.86;56.44;94387.41;5112530;28;20046;-77
2023/04/05 09:39:07;;;;;;;4.10;2.80;;;;;;;2.95;55.65;94394.53;5113700;28;20031;-77
2023/04/05 09:41:34;;;;;;;7.03;4.00;;;;;;;2.98;57.57;94399.50;5112998;28;20043;-77
2023/04/05 09:43:59;;;;;;;4.22;3.10;;;;;;;3.58;56.81;94488.34;5097431;28;20020;-78
2023/04/05 09:46:43;;;;;;;4.63;2.63;;;;;;;2.85;55.55;94367.78;5093124;28;20470;-77
2023/04/05 09:49:09;;;;;;;5.13;3.30;;;;;;;2.77;56.16;94367.44;5092840;28;20028;-76
2023/04/05 09:51:37;;;;;;;6.90;4.30;;;;;;;2.72;57.85;94369.44;5093684;28;20028;-76
2023/04/05 09:54:04;;;;;;;4.78;3.47;;;;;;;2.69;56.69;94375.56;5092889;28;20035;-76
2023/04/05 09:56:37;;;;;;;4.95;3.33;;;;;;;2.93;56.59;94410.97;5093466;28;20028;-76
2023/04/05 09:59:09;;;;;;;12.52;6.90;;;;;;;2.91;57.55;94375.94;5092795;28;20032;-76
2023/04/05 10:01:36;;;;;;;10.52;5.13;;;;;;;3.31;56.58;94396.63;5092060;28;20032;-77
2023/04/05 10:04:01;;;;;;;8.23;4.32;;;;;;;3.97;55.79;94492.78;5091488;28;20024;-76
2023/04/05 10:06:42;;;;;;;4.28;2.92;;;;;;;3.79;55.52;94491.34;5092379;28;20587;-77
2023/04/05 10:09:09;;;;;;;5.88;4.32;;;;;;;3.21;56.13;94394.75;5092706;28;20410;-77
2023/04/05 10:11:36;;;;;;;4.65;3.60;;;;;;;3.76;56.13;94466.66;5092455;28;20046;-76
2023/04/05 10:14:05;;;;;;;4.00;3.15;;;;;;;3.19;56.26;94371.72;5092121;28;20024;-77
2023/04/05 10:16:57;;;;;;;5.32;4.00;;;;;;;3.85;55.65;94485.84;5092956;28;20070;-76
2023/04/05 10:19:47;;;;;;;6.47;4.05;;;;;;;4.03;55.37;94496.69;5100399;28;20027;-76
2023/04/05 10:22:14;;;;;;;4.95;3.65;;;;;;;3.71;54.33;94449.88;5097451;28;20510;-77
2023/04/05 10:24:48;;;;;;;5.15;3.40;;;;;;;3.31;54.42;94416.34;5091126;28;20047;-78
2023/04/05 10:27:18;;;;;;;5.07;3.60;;;;;;;3.84;54.05;94506.47;5091427;28;20038;-76
2023/04/05 10:29:56;;;;;;;4.32;3.80;;;;;;;2.92;54.90;94389.59;5091321;28;20050;-77
2023/04/05 10:32:49;;;;;;;4.38;3.25;;;;;;;3.26;55.48;94479.97;5075904;28;20028;-76
2023/04/05 10:35:21;;;;;;;4.32;3.42;;;;;;;2.82;55.00;94424.44;5083225;28;20089;-76
2023/04/05 10:38:16;;;;;;;3.97;2.90;;;;;;;2.55;54.57;94396.88;5074871;28;20020;-77
2023/04/05 10:40:43;;;;;;;5.68;3.70;;;;;;;3.23;55.53;94505.84;5092876;28;20474;-76
2023/04/05 10:43:12;;;;;;;5.53;4.07;;;;;;;3.36;55.19;94507.59;5091386;28;20093;-76
2023/04/05 10:45:38;;;;;;;7.30;3.95;;;;;;;3.33;54.74;94484.66;5092628;28;20119;-76
2023/04/05 10:48:09;;;;;;;5.88;4.13;;;;;;;3.56;56.20;94513.28;5074492;28;20039;-76
2023/04/05 10:50:34;;;;;;;;;;;;;;;3.40;54.08;94502.28;5075313;28;20046;-76
2023/04/05 10:53:00;;;;;;;5.50;4.30;;;;;;;3.33;55.48;94497.50;5092621;28;19911;-76
2023/04/05 10:55:25;;;;;;;4.38;3.40;;;;;;;3.43;54.09;94502.94;5074162;28;20533;-76
2023/04/05 10:57:51;;;;;;;5.15;3.70;;;;;;;3.43;54.33;94496.97;5073956;28;20085;-76
2023/04/05 11:00:16;;;;;;;7.30;4.18;;;;;;;3.45;53.35;94490.81;5076876;28;20032;-76
2023/04/05 11:02:42;;;;;;;4.65;3.90;;;;;;;3.39;53.82;94486.03;5111447;28;20251;-76
2023/04/05 11:05:30;;;;;;;5.78;4.15;;;;;;;3.46;55.42;94507.06;5109888;28;20454;-77
2023/04/05 11:07:59;;;;;;;5.88;4.00;;;;;;;3.54;54.42;94504.84;5055680;28;20055;-76
2023/04/05 11:10:25;;;;;;;6.63;4.80;;;;;;;3.37;54.67;94498.13;5037235;28;20079;-76
2023/04/05 11:12:51;;;;;;;11.40;6.40;;;;;;;3.36;54.92;94501.63;5091040;28;20394;-76
2023/04/05 11:15:31;;;;;;;6.18;4.65;;;;;;;3.43;54.49;94497.78;5092124;28;20036;-76
2023/04/05 11:18:10;;;;;;;18.73;12.77;;;;;;;3.55;55.35;94507.31;5091990;28;20567;-76
2023/04/05 11:20:46;;;;;;;13.10;8.65;;;;;;;3.79;55.42;94504.19;5090657;28;20717;-76
2023/04/05 11:23:17;;;;;;;52.13;30.17;;;;;;;3.95;53.96;94516.91;5072469;28;20028;-76
2023/04/05 11:25:58;;;;;;;7.07;5.22;;;;;;;3.94;53.77;94515.28;5073190;28;20131;-76
2023/04/05 11:28:36;;;;;;;19.77;12.38;;;;;;;3.91;53.56;94507.75;5090570;28;20034;-76
2023/04/05 11:31:18;;;;;;;12.98;8.93;;;;;;;3.97;53.77;94513.34;5088657;28;20036;-76
2023/04/05 11:33:43;;;;;;;6.93;5.32;;;;;;;3.83;54.00;94515.09;5089190;28;20118;-76
2023/04/05 11:36:09;;;;;;;7.78;5.45;;;;;;;3.66;53.84;94511.81;5090337;28;20620;-76
2023/04/05 11:38:35;;;;;;;9.70;6.40;;;;;;;3.53;54.60;94504.00;5073569;28;20043;-76
2023/04/05 11:41:20;;;;;;;7.00;5.75;;;;;;;3.58;54.61;94489.16;5073548;28;20502;-76